Airfield :
LOGIN :

Register | Disclaimer

   EN    FR    IT 

 










Legend :    VFR   Marginal VFR   IFR   Intensive IFR   Very Intensive IFR
Visi :
Ceiling :
>= 8 km
>= 3000ft
5 to 8 km
1000 to 3000 ft
1500m to 5 km
500 to 1000 ft
800 to 1500m
200 to 500 ft
< 800m
< 200 ft
Symbols :   Thunderstorms  Fog  Heavy snow  Heavy precipitations  Wind > 20 kt
SIGMETs :     Misc.  Thunderstorms  Icing  Turbulence  Mountain Waves  Volcanic Ashes







- Airport Elevation : 628 ft
- IATA code : CMR
- Download approach charts


LFGA - Colmar-Houssen

CURRENT METAR :
  • 150030Z AUTO 22010KT 9999 FEW050 SCT076 BKN140 05/02 Q0995

EXPIRED METARs :
  • 150000Z AUTO 19011KT 9999 SCT035 BKN041 BKN052 04/03 Q0995
  • 142330Z AUTO 17005KT 9999 SCT039 SCT084 BKN100 05/03 Q0994
  • 142300Z AUTO 17009KT 9999 -RA BKN033 BKN039 BKN046 05/03 Q0994
  • 142230Z AUTO 17009KT 9999 FEW027 BKN064 BKN080 05/03 Q0995
  • 142200Z AUTO 18011KT 9999 -RA FEW029 SCT045 BKN066 05/03 Q0994

TAF N/A
No reported NOTAMs for that airfield.
2 SIGMETs reported for the Reims FIR (LFEE) :
 
Severe turbulence
LFEE SIGMET 9 VALID 142300/150300 LFPW
LFEE REIMS FIR/UIR SEV TURB FCST S OF LINE N4730 E00415 - N4815 E00800 FL170/280 STNR WKN=
Severe turbulence
LFEE SIGMET 10 VALID 142300/150300 LFPW
LFEE REIMS FIR/UIR SEV TURB FCST WI N4830 E00800 - N4730 E00730 - N4630 E00615 - N4630 E00515 - N4830 E00800 SFC/FL070 STNR NC=



MET'MAP, your aeronautical weather chart ! - Copyright ORBIFLY December 2007 - Disclaimer

ORBIFLY MET'MAP TEAM :

Programming & Development : Alexandra Zaïnal
Concept & Development : Baudouin d'Aumeries
Co-Development & Prog : Marc-Olivier Méhu
Technical & hardware support : Manuel Goepfert

Contact : metmap@orbifly.com




SOURCES & CREDITS :

   NOAA